sensor_id;sensor_type;location;lat;lon;timestamp;temperature;humidity
22984;DHT22;11658;48.908;9.140;2023-09-19T04:02:48;16.40;99.90
22984;DHT22;11658;48.908;9.140;2023-09-19T04:05:14;16.50;99.90
22984;DHT22;11658;48.908;9.140;2023-09-19T04:07:39;16.40;99.90
22984;DHT22;11658;48.908;9.140;2023-09-19T04:10:05;16.40;99.90
22984;DHT22;11658;48.908;9.140;2023-09-19T04:12:34;16.40;99.90
22984;DHT22;11658;48.908;9.140;2023-09-19T04:14:59;16.30;99.90
22984;DHT22;11658;48.908;9.140;2023-09-19T04:17:25;16.40;99.90
22984;DHT22;11658;48.908;9.140;2023-09-19T04:19:51;16.30;99.90
22984;DHT22;11658;48.908;9.140;2023-09-19T04:22:16;16.30;99.90
22984;DHT22;11658;48.908;9.140;2023-09-19T04:24:42;16.20;99.90
22984;DHT22;11658;48.908;9.140;2023-09-19T04:27:08;16.30;99.90
22984;DHT22;11658;48.908;9.140;2023-09-19T04:29:35;16.30;99.90
22984;DHT22;11658;48.908;9.140;2023-09-19T04:32:00;16.40;99.90
22984;DHT22;11658;48.908;9.140;2023-09-19T04:34:26;16.50;99.90
22984;DHT22;11658;48.908;9.140;2023-09-19T04:36:52;16.50;99.90
22984;DHT22;11658;48.908;9.140;2023-09-19T04:39:18;16.60;99.90
22984;DHT22;11658;48.908;9.140;2023-09-19T04:41:44;16.70;99.90
22984;DHT22;11658;48.908;9.140;2023-09-19T04:44:13;16.70;99.90
22984;DHT22;11658;48.908;9.140;2023-09-19T04:46:39;16.70;99.90
22984;DHT22;11658;48.908;9.140;2023-09-19T04:49:04;16.80;99.90
22984;DHT22;11658;48.908;9.140;2023-09-19T04:51:30;16.80;99.90
22984;DHT22;11658;48.908;9.140;2023-09-19T04:54:00;17.00;99.90
22984;DHT22;11658;48.908;9.140;2023-09-19T04:56:25;16.90;99.90
22984;DHT22;11658;48.908;9.140;2023-09-19T04:58:51;16.90;99.90
22984;DHT22;11658;48.908;9.140;2023-09-19T05:01:16;16.90;99.90
22984;DHT22;11658;48.908;9.140;2023-09-19T05:03:42;16.80;99.90
22984;DHT22;11658;48.908;9.140;2023-09-19T05:06:10;16.70;99.90
22984;DHT22;11658;48.908;9.140;2023-09-19T05:08:35;16.50;99.90
22984;DHT22;11658;48.908;9.140;2023-09-19T05:11:04;16.40;99.90
22984;DHT22;11658;48.908;9.140;2023-09-19T05:13:29;16.30;99.90
22984;DHT22;11658;48.908;9.140;2023-09-19T05:16:00;16.10;99.90
22984;DHT22;11658;48.908;9.140;2023-09-19T05:18:28;16.00;99.90
22984;DHT22;11658;48.908;9.140;2023-09-19T05:20:53;15.60;99.90
22984;DHT22;11658;48.908;9.140;2023-09-19T05:23:20;15.80;99.90
22984;DHT22;11658;48.908;9.140;2023-09-19T05:25:46;15.70;99.90
22984;DHT22;11658;48.908;9.140;2023-09-19T05:28:12;15.70;99.90
22984;DHT22;11658;48.908;9.140;2023-09-19T05:30:40;15.60;99.90
22984;DHT22;11658;48.908;9.140;2023-09-19T05:33:08;15.50;99.90
22984;DHT22;11658;48.908;9.140;2023-09-19T05:35:34;15.40;99.90
22984;DHT22;11658;48.908;9.140;2023-09-19T05:38:00;15.40;99.90
22984;DHT22;11658;48.908;9.140;2023-09-19T05:40:26;15.30;99.90
22984;DHT22;11658;48.908;9.140;2023-09-19T05:42:52;15.30;99.90
22984;DHT22;11658;48.908;9.140;2023-09-19T05:45:18;15.30;99.90
22984;DHT22;11658;48.908;9.140;2023-09-19T05:47:50;15.40;99.90
22984;DHT22;11658;48.908;9.140;2023-09-19T05:50:16;15.30;99.90
22984;DHT22;11658;48.908;9.140;2023-09-19T05:52:42;15.40;99.90
22984;DHT22;11658;48.908;9.140;2023-09-19T05:55:10;15.40;99.90
22984;DHT22;11658;48.908;9.140;2023-09-19T05:57:37;15.40;99.90
22984;DHT22;11658;48.908;9.140;2023-09-19T06:00:08;15.50;99.90
22984;DHT22;11658;48.908;9.140;2023-09-19T06:02:40;15.50;99.90
22984;DHT22;11658;48.908;9.140;2023-09-19T06:05:06;15.50;99.90
22984;DHT22;11658;48.908;9.140;2023-09-19T06:07:32;15.50;99.90
22984;DHT22;11658;48.908;9.140;2023-09-19T06:10:05;15.40;99.90
22984;DHT22;11658;48.908;9.140;2023-09-19T06:12:31;15.40;99.90
22984;DHT22;11658;48.908;9.140;2023-09-19T06:14:59;15.40;99.90
22984;DHT22;11658;48.908;9.140;2023-09-19T06:17:25;15.40;99.90
22984;DHT22;11658;48.908;9.140;2023-09-19T06:19:53;15.40;99.90
22984;DHT22;11658;48.908;9.140;2023-09-19T06:22:18;15.50;99.90
22984;DHT22;11658;48.908;9.140;2023-09-19T06:24:44;15.50;99.90
22984;DHT22;11658;48.908;9.140;2023-09-19T06:27:10;15.40;99.90
22984;DHT22;11658;48.908;9.140;2023-09-19T06:29:35;15.60;99.90
22984;DHT22;11658;48.908;9.140;2023-09-19T06:32:09;15.60;99.90
22984;DHT22;11658;48.908;9.140;2023-09-19T06:34:36;15.70;99.90
22984;DHT22;11658;48.908;9.140;2023-09-19T06:37:01;15.80;99.90
22984;DHT22;11658;48.908;9.140;2023-09-19T06:39:28;15.80;99.90
22984;DHT22;11658;48.908;9.140;2023-09-19T06:41:54;15.80;99.90
22984;DHT22;11658;48.908;9.140;2023-09-19T06:44:19;16.00;99.90
22984;DHT22;11658;48.908;9.140;2023-09-19T06:46:47;15.80;99.90
22984;DHT22;11658;48.908;9.140;2023-09-19T06:49:17;16.10;99.90
22984;DHT22;11658;48.908;9.140;2023-09-19T06:51:42;16.10;99.90
22984;DHT22;11658;48.908;9.140;2023-09-19T06:54:09;16.10;99.90
22984;DHT22;11658;48.908;9.140;2023-09-19T06:56:35;16.10;99.90
22984;DHT22;11658;48.908;9.140;2023-09-19T06:59:00;16.20;99.90
22984;DHT22;11658;48.908;9.140;2023-09-19T07:01:28;16.30;99.90
22984;DHT22;11658;48.908;9.140;2023-09-19T07:03:53;16.30;99.90
22984;DHT22;11658;48.908;9.140;2023-09-19T07:06:20;16.30;99.90
22984;DHT22;11658;48.908;9.140;2023-09-19T07:08:45;16.30;99.90
22984;DHT22;11658;48.908;9.140;2023-09-19T07:11:11;16.40;99.90
22984;DHT22;11658;48.908;9.140;2023-09-19T07:13:37;16.40;99.90
22984;DHT22;11658;48.908;9.140;2023-09-19T07:16:03;16.50;99.90
22984;DHT22;11658;48.908;9.140;2023-09-19T07:18:29;16.40;99.90
22984;DHT22;11658;48.908;9.140;2023-09-19T07:20:58;16.90;99.90
22984;DHT22;11658;48.908;9.140;2023-09-19T07:23:30;16.40;99.90
22984;DHT22;11658;48.908;9.140;2023-09-19T07:26:01;16.30;99.90
22984;DHT22;11658;48.908;9.140;2023-09-19T07:28:26;16.40;99.90
22984;DHT22;11658;48.908;9.140;2023-09-19T07:30:53;16.40;99.90
22984;DHT22;11658;48.908;9.140;2023-09-19T07:33:19;16.50;99.90
22984;DHT22;11658;48.908;9.140;2023-09-19T07:35:51;16.60;99.90
22984;DHT22;11658;48.908;9.140;2023-09-19T07:38:17;16.70;99.90
22984;DHT22;11658;48.908;9.140;2023-09-19T07:40:46;16.80;99.90
22984;DHT22;11658;48.908;9.140;2023-09-19T07:43:12;16.80;99.90
22984;DHT22;11658;48.908;9.140;2023-09-19T07:45:37;16.80;99.90
22984;DHT22;11658;48.908;9.140;2023-09-19T07:48:03;17.00;99.90
22984;DHT22;11658;48.908;9.140;2023-09-19T07:50:39;17.00;99.90
22984;DHT22;11658;48.908;9.140;2023-09-19T07:53:05;17.00;99.90
22984;DHT22;11658;48.908;9.140;2023-09-19T07:55:30;17.00;99.90
22984;DHT22;11658;48.908;9.140;2023-09-19T07:57:56;16.90;99.90
22984;DHT22;11658;48.908;9.140;2023-09-19T08:00:22;17.00;99.90
22984;DHT22;11658;48.908;9.140;2023-09-19T08:02:48;17.10;99.90
22984;DHT22;11658;48.908;9.140;2023-09-19T08:05:14;17.00;99.90
22984;DHT22;11658;48.908;9.140;2023-09-19T08:07:44;17.00;99.90
22984;DHT22;11658;48.908;9.140;2023-09-19T08:10:11;17.20;99.90
22984;DHT22;11658;48.908;9.140;2023-09-19T08:12:39;17.20;99.90
22984;DHT22;11658;48.908;9.140;2023-09-19T08:15:13;17.50;99.90
22984;DHT22;11658;48.908;9.140;2023-09-19T08:17:38;17.70;99.90
22984;DHT22;11658;48.908;9.140;2023-09-19T08:20:05;17.60;99.90
22984;DHT22;11658;48.908;9.140;2023-09-19T08:22:31;17.70;99.90
22984;DHT22;11658;48.908;9.140;2023-09-19T08:24:57;17.50;99.90
22984;DHT22;11658;48.908;9.140;2023-09-19T08:27:23;17.60;99.90
22984;DHT22;11658;48.908;9.140;2023-09-19T08:29:52;17.70;99.90
22984;DHT22;11658;48.908;9.140;2023-09-19T08:32:18;17.70;99.90
22984;DHT22;11658;48.908;9.140;2023-09-19T08:34:49;17.70;99.90
22984;DHT22;11658;48.908;9.140;2023-09-19T08:37:15;17.80;99.90
22984;DHT22;11658;48.908;9.140;2023-09-19T08:39:41;18.00;99.90
22984;DHT22;11658;48.908;9.140;2023-09-19T08:42:06;18.10;99.90
22984;DHT22;11658;48.908;9.140;2023-09-19T08:44:36;17.50;99.90
22984;DHT22;11658;48.908;9.140;2023-09-19T08:47:10;18.20;99.90
22984;DHT22;11658;48.908;9.140;2023-09-19T08:52:41;18.30;99.90
22984;DHT22;11658;48.908;9.140;2023-09-19T08:55:07;18.50;99.90
22984;DHT22;11658;48.908;9.140;2023-09-19T08:57:38;18.70;99.90
22984;DHT22;11658;48.908;9.140;2023-09-19T09:00:07;18.80;99.90
22984;DHT22;11658;48.908;9.140;2023-09-19T09:02:40;18.60;99.90
22984;DHT22;11658;48.908;9.140;2023-09-19T09:05:09;18.60;99.90
22984;DHT22;11658;48.908;9.140;2023-09-19T09:07:38;18.80;99.90
22984;DHT22;11658;48.908;9.140;2023-09-19T09:10:06;18.80;99.90
22984;DHT22;11658;48.908;9.140;2023-09-19T09:12:33;19.10;99.90
22984;DHT22;11658;48.908;9.140;2023-09-19T09:15:02;19.50;99.90
22984;DHT22;11658;48.908;9.140;2023-09-19T09:17:29;19.70;99.90
22984;DHT22;11658;48.908;9.140;2023-09-19T09:19:55;19.70;99.90
22984;DHT22;11658;48.908;9.140;2023-09-19T09:22:21;19.80;99.90
22984;DHT22;11658;48.908;9.140;2023-09-19T09:24:54;19.80;99.90
22984;DHT22;11658;48.908;9.140;2023-09-19T09:27:23;19.70;99.90
22984;DHT22;11658;48.908;9.140;2023-09-19T09:29:50;19.80;99.90
22984;DHT22;11658;48.908;9.140;2023-09-19T09:32:21;19.80;99.90
22984;DHT22;11658;48.908;9.140;2023-09-19T09:34:58;20.10;99.90
22984;DHT22;11658;48.908;9.140;2023-09-19T09:37:24;20.10;99.90
22984;DHT22;11658;48.908;9.140;2023-09-19T09:39:52;20.10;99.90
22984;DHT22;11658;48.908;9.140;2023-09-19T09:42:54;20.20;99.90
22984;DHT22;11658;48.908;9.140;2023-09-19T09:45:24;20.10;99.90
22984;DHT22;11658;48.908;9.140;2023-09-19T09:47:59;20.10;99.90
22984;DHT22;11658;48.908;9.140;2023-09-19T09:50:46;20.20;99.90
22984;DHT22;11658;48.908;9.140;2023-09-19T09:53:28;20.40;99.90
22984;DHT22;11658;48.908;9.140;2023-09-19T09:58:38;20.80;99.90
22984;DHT22;11658;48.908;9.140;2023-09-19T10:01:14;21.00;99.90
22984;DHT22;11658;48.908;9.140;2023-09-19T10:03:44;21.10;99.90
22984;DHT22;11658;48.908;9.140;2023-09-19T10:06:14;20.90;99.90
22984;DHT22;11658;48.908;9.140;2023-09-19T10:11:31;20.50;99.90
22984;DHT22;11658;48.908;9.140;2023-09-19T10:13:58;20.40;99.90
22984;DHT22;11658;48.908;9.140;2023-09-19T10:16:30;20.50;99.90
22984;DHT22;11658;48.908;9.140;2023-09-19T10:18:59;20.60;99.90
22984;DHT22;11658;48.908;9.140;2023-09-19T10:21:28;20.50;99.90
22984;DHT22;11658;48.908;9.140;2023-09-19T10:24:00;20.70;99.90
22984;DHT22;11658;48.908;9.140;2023-09-19T10:26:30;20.70;99.90
22984;DHT22;11658;48.908;9.140;2023-09-19T10:28:57;20.70;99.90
22984;DHT22;11658;48.908;9.140;2023-09-19T10:31:27;20.90;99.90
22984;DHT22;11658;48.908;9.140;2023-09-19T10:33:55;20.90;99.90
22984;DHT22;11658;48.908;9.140;2023-09-19T10:36:24;21.00;99.90
22984;DHT22;11658;48.908;9.140;2023-09-19T10:38:54;21.10;99.90
22984;DHT22;11658;48.908;9.140;2023-09-19T10:41:22;21.30;99.90
22984;DHT22;11658;48.908;9.140;2023-09-19T10:43:48;21.30;99.90
22984;DHT22;11658;48.908;9.140;2023-09-19T10:46:16;21.00;99.90
22984;DHT22;11658;48.908;9.140;2023-09-19T10:48:42;20.80;99.90
22984;DHT22;11658;48.908;9.140;2023-09-19T10:51:23;20.90;99.90
22984;DHT22;11658;48.908;9.140;2023-09-19T10:54:00;21.00;99.90
22984;DHT22;11658;48.908;9.140;2023-09-19T10:56:36;21.00;99.90
22984;DHT22;11658;48.908;9.140;2023-09-19T10:59:15;20.80;99.90
22984;DHT22;11658;48.908;9.140;2023-09-19T11:04:35;20.30;99.90
22984;DHT22;11658;48.908;9.140;2023-09-19T11:07:13;20.30;99.90
22984;DHT22;11658;48.908;9.140;2023-09-19T11:09:44;20.40;99.90
22984;DHT22;11658;48.908;9.140;2023-09-19T11:15:01;20.40;99.90
22984;DHT22;11658;48.908;9.140;2023-09-19T11:17:36;20.20;99.90
22984;DHT22;11658;48.908;9.140;2023-09-19T11:30:47;20.90;99.90
22984;DHT22;11658;48.908;9.140;2023-09-19T11:33:27;20.70;99.90
22984;DHT22;11658;48.908;9.140;2023-09-19T11:36:11;20.80;99.90
22984;DHT22;11658;48.908;9.140;2023-09-19T11:46:32;20.80;99.90
22984;DHT22;11658;48.908;9.140;2023-09-19T11:49:08;20.90;99.90
22984;DHT22;11658;48.908;9.140;2023-09-19T11:51:42;20.80;99.90
22984;DHT22;11658;48.908;9.140;2023-09-19T11:54:11;20.80;99.90
22984;DHT22;11658;48.908;9.140;2023-09-19T11:56:44;20.90;99.90
22984;DHT22;11658;48.908;9.140;2023-09-19T11:59:11;20.90;99.90
22984;DHT22;11658;48.908;9.140;2023-09-19T12:01:51;20.90;99.90
22984;DHT22;11658;48.908;9.140;2023-09-19T12:07:17;21.30;99.90
22984;DHT22;11658;48.908;9.140;2023-09-19T12:09:45;21.40;99.90
22984;DHT22;11658;48.908;9.140;2023-09-19T12:12:25;21.50;99.90
22984;DHT22;11658;48.908;9.140;2023-09-19T12:14:56;21.70;99.90
22984;DHT22;11658;48.908;9.140;2023-09-19T12:17:38;21.80;99.90
22984;DHT22;11658;48.908;9.140;2023-09-19T12:20:05;21.90;99.90
22984;DHT22;11658;48.908;9.140;2023-09-19T12:22:40;22.00;99.90
22984;DHT22;11658;48.908;9.140;2023-09-19T12:25:06;21.70;99.90
22984;DHT22;11658;48.908;9.140;2023-09-19T12:27:49;21.50;99.90
22984;DHT22;11658;48.908;9.140;2023-09-19T12:30:18;21.60;99.90
22984;DHT22;11658;48.908;9.140;2023-09-19T12:32:46;21.80;99.90
22984;DHT22;11658;48.908;9.140;2023-09-19T12:35:30;22.20;99.90
22984;DHT22;11658;48.908;9.140;2023-09-19T12:37:56;22.20;99.90
22984;DHT22;11658;48.908;9.140;2023-09-19T12:40:22;22.20;99.90
22984;DHT22;11658;48.908;9.140;2023-09-19T12:42:53;22.30;99.90
22984;DHT22;11658;48.908;9.140;2023-09-19T12:45:21;22.20;99.90
22984;DHT22;11658;48.908;9.140;2023-09-19T12:51:05;22.30;99.90
22984;DHT22;11658;48.908;9.140;2023-09-19T12:53:42;22.20;99.90
22984;DHT22;11658;48.908;9.140;2023-09-19T12:56:13;22.20;99.90
22984;DHT22;11658;48.908;9.140;2023-09-19T12:58:58;22.20;99.90
22984;DHT22;11658;48.908;9.140;2023-09-19T13:01:26;22.00;99.90
22984;DHT22;11658;48.908;9.140;2023-09-19T13:04:30;21.60;99.90
22984;DHT22;11658;48.908;9.140;2023-09-19T13:06:58;21.60;99.90
22984;DHT22;11658;48.908;9.140;2023-09-19T13:09:26;21.50;99.90
22984;DHT22;11658;48.908;9.140;2023-09-19T13:12:04;21.80;99.90
22984;DHT22;11658;48.908;9.140;2023-09-19T13:14:32;22.20;99.90
22984;DHT22;11658;48.908;9.140;2023-09-19T13:17:06;22.40;99.90
22984;DHT22;11658;48.908;9.140;2023-09-19T13:19:46;22.50;99.90
22984;DHT22;11658;48.908;9.140;2023-09-19T13:22:43;22.40;99.90
22984;DHT22;11658;48.908;9.140;2023-09-19T13:25:19;22.20;99.90
22984;DHT22;11658;48.908;9.140;2023-09-19T13:27:50;22.30;99.90
22984;DHT22;11658;48.908;9.140;2023-09-19T13:30:21;22.40;99.90
22984;DHT22;11658;48.908;9.140;2023-09-19T13:32:47;22.50;99.90
22984;DHT22;11658;48.908;9.140;2023-09-19T13:35:14;22.40;99.90
22984;DHT22;11658;48.908;9.140;2023-09-19T13:37:41;22.40;99.90
22984;DHT22;11658;48.908;9.140;2023-09-19T13:40:10;22.10;99.90
22984;DHT22;11658;48.908;9.140;2023-09-19T13:42:37;22.00;99.90
22984;DHT22;11658;48.908;9.140;2023-09-19T13:45:03;22.20;99.90
22984;DHT22;11658;48.908;9.140;2023-09-19T13:47:32;22.50;99.90
22984;DHT22;11658;48.908;9.140;2023-09-19T13:50:02;22.90;99.90
22984;DHT22;11658;48.908;9.140;2023-09-19T13:52:30;23.00;99.90
22984;DHT22;11658;48.908;9.140;2023-09-19T13:54:56;22.90;99.90
22984;DHT22;11658;48.908;9.140;2023-09-19T13:57:31;23.00;99.90
22984;DHT22;11658;48.908;9.140;2023-09-19T13:59:58;22.80;99.90
22984;DHT22;11658;48.908;9.140;2023-09-19T14:02:24;22.80;99.90
22984;DHT22;11658;48.908;9.140;2023-09-19T14:04:53;22.90;99.90
22984;DHT22;11658;48.908;9.140;2023-09-19T14:07:18;22.70;99.90
22984;DHT22;11658;48.908;9.140;2023-09-19T14:09:45;22.60;99.90
22984;DHT22;11658;48.908;9.140;2023-09-19T14:12:11;22.60;99.90
22984;DHT22;11658;48.908;9.140;2023-09-19T14:14:37;22.20;99.90
22984;DHT22;11658;48.908;9.140;2023-09-19T14:17:04;22.20;99.90
22984;DHT22;11658;48.908;9.140;2023-09-19T14:19:30;22.40;99.90
22984;DHT22;11658;48.908;9.140;2023-09-19T14:21:55;22.60;99.90
22984;DHT22;11658;48.908;9.140;2023-09-19T14:24:21;22.50;99.90
22984;DHT22;11658;48.908;9.140;2023-09-19T14:26:48;22.50;99.90
22984;DHT22;11658;48.908;9.140;2023-09-19T14:29:15;22.60;99.90
22984;DHT22;11658;48.908;9.140;2023-09-19T14:31:41;22.60;99.90
22984;DHT22;11658;48.908;9.140;2023-09-19T14:34:06;22.50;99.90
22984;DHT22;11658;48.908;9.140;2023-09-19T14:36:32;22.50;99.90
22984;DHT22;11658;48.908;9.140;2023-09-19T14:38:59;22.40;99.90
22984;DHT22;11658;48.908;9.140;2023-09-19T14:41:25;22.60;99.90
22984;DHT22;11658;48.908;9.140;2023-09-19T14:43:51;22.50;99.90
22984;DHT22;11658;48.908;9.140;2023-09-19T14:46:17;22.70;99.90
22984;DHT22;11658;48.908;9.140;2023-09-19T14:48:44;22.90;99.90
22984;DHT22;11658;48.908;9.140;2023-09-19T14:51:10;23.20;99.90
22984;DHT22;11658;48.908;9.140;2023-09-19T14:53:37;23.30;99.90
22984;DHT22;11658;48.908;9.140;2023-09-19T14:56:04;23.10;99.90
22984;DHT22;11658;48.908;9.140;2023-09-19T14:58:34;23.00;99.90
22984;DHT22;11658;48.908;9.140;2023-09-19T15:01:04;23.00;99.90
22984;DHT22;11658;48.908;9.140;2023-09-19T15:03:31;22.90;99.90
22984;DHT22;11658;48.908;9.140;2023-09-19T15:06:02;23.00;99.90
22984;DHT22;11658;48.908;9.140;2023-09-19T15:08:28;23.00;99.90
22984;DHT22;11658;48.908;9.140;2023-09-19T15:10:53;23.10;99.90
22984;DHT22;11658;48.908;9.140;2023-09-19T15:13:19;23.10;99.90
22984;DHT22;11658;48.908;9.140;2023-09-19T15:15:45;23.00;99.90
22984;DHT22;11658;48.908;9.140;2023-09-19T15:18:13;22.80;99.90
22984;DHT22;11658;48.908;9.140;2023-09-19T15:20:44;22.80;99.90
22984;DHT22;11658;48.908;9.140;2023-09-19T15:23:09;22.80;99.90
22984;DHT22;11658;48.908;9.140;2023-09-19T15:25:35;22.80;99.90
22984;DHT22;11658;48.908;9.140;2023-09-19T15:28:01;22.80;99.90
22984;DHT22;11658;48.908;9.140;2023-09-19T15:30:37;22.70;99.90
22984;DHT22;11658;48.908;9.140;2023-09-19T15:33:03;22.60;99.90
22984;DHT22;11658;48.908;9.140;2023-09-19T15:35:29;22.60;99.90
22984;DHT22;11658;48.908;9.140;2023-09-19T15:37:54;22.50;99.90
22984;DHT22;11658;48.908;9.140;2023-09-19T15:40:21;22.20;99.90
22984;DHT22;11658;48.908;9.140;2023-09-19T15:42:49;22.10;99.90
22984;DHT22;11658;48.908;9.140;2023-09-19T15:45:15;22.10;99.90
22984;DHT22;11658;48.908;9.140;2023-09-19T15:47:42;22.20;99.90
22984;DHT22;11658;48.908;9.140;2023-09-19T15:50:08;22.20;99.90
22984;DHT22;11658;48.908;9.140;2023-09-19T15:52:44;22.20;99.90
22984;DHT22;11658;48.908;9.140;2023-09-19T15:55:09;22.20;99.90
22984;DHT22;11658;48.908;9.140;2023-09-19T15:57:38;22.20;99.90
22984;DHT22;11658;48.908;9.140;2023-09-19T16:00:05;22.10;99.90
22984;DHT22;11658;48.908;9.140;2023-09-19T16:02:36;22.10;99.90
22984;DHT22;11658;48.908;9.140;2023-09-19T16:05:02;22.00;99.90
22984;DHT22;11658;48.908;9.140;2023-09-19T16:07:31;21.90;99.90
22984;DHT22;11658;48.908;9.140;2023-09-19T16:09:56;21.90;99.90
22984;DHT22;11658;48.908;9.140;2023-09-19T16:12:24;21.90;99.90
22984;DHT22;11658;48.908;9.140;2023-09-19T16:14:50;21.80;99.90
22984;DHT22;11658;48.908;9.140;2023-09-19T16:17:15;21.80;99.90
22984;DHT22;11658;48.908;9.140;2023-09-19T16:19:41;21.70;99.90
22984;DHT22;11658;48.908;9.140;2023-09-19T16:22:09;21.80;99.90
22984;DHT22;11658;48.908;9.140;2023-09-19T16:24:34;21.80;99.90
22984;DHT22;11658;48.908;9.140;2023-09-19T16:27:00;21.90;99.90
22984;DHT22;11658;48.908;9.140;2023-09-19T16:29:26;21.70;99.90
22984;DHT22;11658;48.908;9.140;2023-09-19T16:31:52;21.70;99.90
22984;DHT22;11658;48.908;9.140;2023-09-19T16:34:18;21.60;99.90
22984;DHT22;11658;48.908;9.140;2023-09-19T16:36:43;21.50;99.90
22984;DHT22;11658;48.908;9.140;2023-09-19T16:39:09;21.50;99.90
22984;DHT22;11658;48.908;9.140;2023-09-19T16:41:36;21.40;99.90
22984;DHT22;11658;48.908;9.140;2023-09-19T16:44:02;21.30;99.90
22984;DHT22;11658;48.908;9.140;2023-09-19T16:46:29;21.20;99.90
22984;DHT22;11658;48.908;9.140;2023-09-19T16:48:55;21.00;99.90
22984;DHT22;11658;48.908;9.140;2023-09-19T16:51:21;21.20;99.90
22984;DHT22;11658;48.908;9.140;2023-09-19T16:53:46;21.30;99.90
22984;DHT22;11658;48.908;9.140;2023-09-19T16:56:14;21.40;99.90
22984;DHT22;11658;48.908;9.140;2023-09-19T16:58:43;21.90;99.90
22984;DHT22;11658;48.908;9.140;2023-09-19T17:01:11;22.30;99.90
22984;DHT22;11658;48.908;9.140;2023-09-19T17:03:39;22.30;99.90
22984;DHT22;11658;48.908;9.140;2023-09-19T17:06:08;22.20;99.90
22984;DHT22;11658;48.908;9.140;2023-09-19T17:08:36;21.90;99.90
22984;DHT22;11658;48.908;9.140;2023-09-19T17:11:10;21.60;99.90
22984;DHT22;11658;48.908;9.140;2023-09-19T17:13:43;21.50;99.90
22984;DHT22;11658;48.908;9.140;2023-09-19T17:16:09;21.30;99.90
22984;DHT22;11658;48.908;9.140;2023-09-19T17:18:37;21.20;99.90
22984;DHT22;11658;48.908;9.140;2023-09-19T17:21:04;21.00;99.90
22984;DHT22;11658;48.908;9.140;2023-09-19T17:23:32;20.90;99.90
22984;DHT22;11658;48.908;9.140;2023-09-19T17:26:04;20.70;99.90
22984;DHT22;11658;48.908;9.140;2023-09-19T17:28:32;20.60;99.90
22984;DHT22;11658;48.908;9.140;2023-09-19T17:30:58;20.50;99.90
22984;DHT22;11658;48.908;9.140;2023-09-19T17:33:25;20.40;99.90
22984;DHT22;11658;48.908;9.140;2023-09-19T17:35:52;20.20;99.90
22984;DHT22;11658;48.908;9.140;2023-09-19T17:38:19;20.20;99.90
22984;DHT22;11658;48.908;9.140;2023-09-19T17:40:45;20.10;99.90
22984;DHT22;11658;48.908;9.140;2023-09-19T17:43:11;19.90;99.90
22984;DHT22;11658;48.908;9.140;2023-09-19T17:45:37;19.80;99.90
22984;DHT22;11658;48.908;9.140;2023-09-19T17:48:03;19.70;99.90
22984;DHT22;11658;48.908;9.140;2023-09-19T17:50:30;19.50;99.90
22984;DHT22;11658;48.908;9.140;2023-09-19T17:52:56;19.30;99.90
22984;DHT22;11658;48.908;9.140;2023-09-19T17:55:22;19.20;99.90
22984;DHT22;11658;48.908;9.140;2023-09-19T17:57:47;19.10;99.90
22984;DHT22;11658;48.908;9.140;2023-09-19T18:00:13;18.90;99.90
22984;DHT22;11658;48.908;9.140;2023-09-19T18:02:40;18.80;99.90
22984;DHT22;11658;48.908;9.140;2023-09-19T18:05:06;18.70;99.90
22984;DHT22;11658;48.908;9.140;2023-09-19T18:07:33;18.60;99.90
22984;DHT22;11658;48.908;9.140;2023-09-19T18:09:58;18.60;99.90
22984;DHT22;11658;48.908;9.140;2023-09-19T18:12:29;18.50;99.90
22984;DHT22;11658;48.908;9.140;2023-09-19T18:14:54;18.40;99.90
22984;DHT22;11658;48.908;9.140;2023-09-19T18:17:20;18.40;99.90
22984;DHT22;11658;48.908;9.140;2023-09-19T18:19:47;18.30;99.90
22984;DHT22;11658;48.908;9.140;2023-09-19T18:22:14;18.10;99.90
22984;DHT22;11658;48.908;9.140;2023-09-19T18:24:39;18.10;99.90
22984;DHT22;11658;48.908;9.140;2023-09-19T18:27:07;18.00;99.90
22984;DHT22;11658;48.908;9.140;2023-09-19T18:29:34;18.00;99.90
22984;DHT22;11658;48.908;9.140;2023-09-19T18:31:59;17.90;99.90
22984;DHT22;11658;48.908;9.140;2023-09-19T18:34:25;17.90;99.90
22984;DHT22;11658;48.908;9.140;2023-09-19T18:36:51;18.40;99.90
22984;DHT22;11658;48.908;9.140;2023-09-19T18:39:16;17.80;99.90
22984;DHT22;11658;48.908;9.140;2023-09-19T18:41:50;17.80;99.90
22984;DHT22;11658;48.908;9.140;2023-09-19T18:44:15;17.80;99.90
22984;DHT22;11658;48.908;9.140;2023-09-19T18:46:42;17.80;99.90
22984;DHT22;11658;48.908;9.140;2023-09-19T18:49:09;17.70;99.90
22984;DHT22;11658;48.908;9.140;2023-09-19T18:51:34;17.90;99.90
22984;DHT22;11658;48.908;9.140;2023-09-19T18:54:00;17.60;99.90
22984;DHT22;11658;48.908;9.140;2023-09-19T18:56:26;17.50;99.90
22984;DHT22;11658;48.908;9.140;2023-09-19T18:58:52;17.50;99.90
22984;DHT22;11658;48.908;9.140;2023-09-19T19:01:17;17.50;99.90
22984;DHT22;11658;48.908;9.140;2023-09-19T19:03:44;17.50;99.90
22984;DHT22;11658;48.908;9.140;2023-09-19T19:06:14;17.40;99.90
22984;DHT22;11658;48.908;9.140;2023-09-19T19:08:42;17.40;99.90
22984;DHT22;11658;48.908;9.140;2023-09-19T19:11:09;17.40;99.90
22984;DHT22;11658;48.908;9.140;2023-09-19T19:13:40;17.50;99.90
22984;DHT22;11658;48.908;9.140;2023-09-19T19:16:06;17.50;99.90
22984;DHT22;11658;48.908;9.140;2023-09-19T19:18:37;17.50;99.90
22984;DHT22;11658;48.908;9.140;2023-09-19T19:21:05;17.60;99.90
22984;DHT22;11658;48.908;9.140;2023-09-19T19:23:32;17.50;99.90
22984;DHT22;11658;48.908;9.140;2023-09-19T19:26:01;17.60;99.90
22984;DHT22;11658;48.908;9.140;2023-09-19T19:28:29;17.60;99.90
22984;DHT22;11658;48.908;9.140;2023-09-19T19:30:55;17.50;99.90
22984;DHT22;11658;48.908;9.140;2023-09-19T19:33:20;17.80;99.90
22984;DHT22;11658;48.908;9.140;2023-09-19T19:35:47;17.50;99.90
22984;DHT22;11658;48.908;9.140;2023-09-19T19:38:13;17.50;99.90
22984;DHT22;11658;48.908;9.140;2023-09-19T19:40:41;17.50;99.90
22984;DHT22;11658;48.908;9.140;2023-09-19T19:43:06;17.50;99.90
22984;DHT22;11658;48.908;9.140;2023-09-19T19:45:33;17.50;99.90
22984;DHT22;11658;48.908;9.140;2023-09-19T19:47:59;17.40;99.90
22984;DHT22;11658;48.908;9.140;2023-09-19T19:50:27;17.30;99.90
22984;DHT22;11658;48.908;9.140;2023-09-19T19:52:53;17.30;99.90
22984;DHT22;11658;48.908;9.140;2023-09-19T19:55:19;17.20;99.90
22984;DHT22;11658;48.908;9.140;2023-09-19T20:02:45;17.20;99.90
22984;DHT22;11658;48.908;9.140;2023-09-19T20:05:11;17.20;99.90
22984;DHT22;11658;48.908;9.140;2023-09-19T20:07:37;17.20;99.90
22984;DHT22;11658;48.908;9.140;2023-09-19T20:10:04;17.20;99.90
22984;DHT22;11658;48.908;9.140;2023-09-19T20:12:31;17.10;99.90
22984;DHT22;11658;48.908;9.140;2023-09-19T20:14:56;17.20;99.90
22984;DHT22;11658;48.908;9.140;2023-09-19T20:17:22;17.10;99.90
22984;DHT22;11658;48.908;9.140;2023-09-19T20:19:49;17.20;99.90
22984;DHT22;11658;48.908;9.140;2023-09-19T20:22:18;17.00;99.90